sensor_id;sensor_type;location;lat;lon;timestamp;P1;durP1;ratioP1;P2;durP2;ratioP2
75450;SDS011;64029;48.244;9.188;2023-01-25T00:01:59;11.20;;;7.93;;
75450;SDS011;64029;48.244;9.188;2023-01-25T00:04:27;10.30;;;6.77;;
75450;SDS011;64029;48.244;9.188;2023-01-25T00:06:54;11.53;;;7.03;;
75450;SDS011;64029;48.244;9.188;2023-01-25T00:09:21;13.30;;;7.60;;
75450;SDS011;64029;48.244;9.188;2023-01-25T00:11:49;12.13;;;8.73;;
75450;SDS011;64029;48.244;9.188;2023-01-25T00:14:17;14.20;;;8.80;;
75450;SDS011;64029;48.244;9.188;2023-01-25T00:16:44;12.10;;;7.90;;
75450;SDS011;64029;48.244;9.188;2023-01-25T00:19:12;10.67;;;7.20;;
75450;SDS011;64029;48.244;9.188;2023-01-25T00:21:39;13.80;;;8.50;;
75450;SDS011;64029;48.244;9.188;2023-01-25T00:24:06;13.90;;;8.73;;
75450;SDS011;64029;48.244;9.188;2023-01-25T00:26:35;11.60;;;8.00;;
75450;SDS011;64029;48.244;9.188;2023-01-25T00:29:03;13.03;;;7.63;;
75450;SDS011;64029;48.244;9.188;2023-01-25T00:31:36;12.13;;;7.77;;
75450;SDS011;64029;48.244;9.188;2023-01-25T00:34:28;15.13;;;8.53;;
75450;SDS011;64029;48.244;9.188;2023-01-25T00:37:13;13.00;;;8.80;;
75450;SDS011;64029;48.244;9.188;2023-01-25T00:39:50;12.27;;;8.10;;
75450;SDS011;64029;48.244;9.188;2023-01-25T00:42:17;12.53;;;7.30;;
75450;SDS011;64029;48.244;9.188;2023-01-25T00:44:45;15.43;;;9.83;;
75450;SDS011;64029;48.244;9.188;2023-01-25T00:47:13;10.63;;;7.37;;
75450;SDS011;64029;48.244;9.188;2023-01-25T00:49:42;12.83;;;8.80;;
75450;SDS011;64029;48.244;9.188;2023-01-25T00:52:10;13.60;;;9.00;;
75450;SDS011;64029;48.244;9.188;2023-01-25T00:54:37;13.30;;;8.20;;
75450;SDS011;64029;48.244;9.188;2023-01-25T00:57:04;14.70;;;8.90;;
75450;SDS011;64029;48.244;9.188;2023-01-25T00:59:31;15.63;;;8.47;;
75450;SDS011;64029;48.244;9.188;2023-01-25T01:01:58;13.57;;;8.90;;
75450;SDS011;64029;48.244;9.188;2023-01-25T01:04:25;13.97;;;9.47;;
75450;SDS011;64029;48.244;9.188;2023-01-25T01:06:54;13.40;;;8.10;;
75450;SDS011;64029;48.244;9.188;2023-01-25T01:09:21;16.80;;;10.37;;
75450;SDS011;64029;48.244;9.188;2023-01-25T01:11:49;14.43;;;9.37;;
75450;SDS011;64029;48.244;9.188;2023-01-25T01:14:15;14.57;;;10.10;;
75450;SDS011;64029;48.244;9.188;2023-01-25T01:16:42;15.73;;;9.80;;
75450;SDS011;64029;48.244;9.188;2023-01-25T01:19:09;13.50;;;8.93;;
75450;SDS011;64029;48.244;9.188;2023-01-25T01:21:36;13.17;;;9.23;;
75450;SDS011;64029;48.244;9.188;2023-01-25T01:24:05;14.13;;;9.53;;
75450;SDS011;64029;48.244;9.188;2023-01-25T01:26:32;16.50;;;9.50;;
75450;SDS011;64029;48.244;9.188;2023-01-25T01:28:59;14.13;;;9.03;;
75450;SDS011;64029;48.244;9.188;2023-01-25T01:31:26;17.43;;;9.97;;
75450;SDS011;64029;48.244;9.188;2023-01-25T01:33:53;15.20;;;9.10;;
75450;SDS011;64029;48.244;9.188;2023-01-25T01:36:22;15.53;;;9.93;;
75450;SDS011;64029;48.244;9.188;2023-01-25T01:38:51;16.27;;;9.50;;
75450;SDS011;64029;48.244;9.188;2023-01-25T01:41:19;14.70;;;8.70;;
75450;SDS011;64029;48.244;9.188;2023-01-25T01:43:46;16.00;;;8.90;;
75450;SDS011;64029;48.244;9.188;2023-01-25T01:46:15;13.70;;;9.13;;
75450;SDS011;64029;48.244;9.188;2023-01-25T01:48:47;16.70;;;9.90;;
75450;SDS011;64029;48.244;9.188;2023-01-25T01:51:18;17.83;;;9.50;;
75450;SDS011;64029;48.244;9.188;2023-01-25T01:53:50;15.40;;;9.43;;
75450;SDS011;64029;48.244;9.188;2023-01-25T01:56:24;17.97;;;9.73;;
75450;SDS011;64029;48.244;9.188;2023-01-25T01:58:56;16.00;;;9.37;;
75450;SDS011;64029;48.244;9.188;2023-01-25T02:01:24;13.40;;;8.37;;
75450;SDS011;64029;48.244;9.188;2023-01-25T02:03:51;19.33;;;11.13;;
75450;SDS011;64029;48.244;9.188;2023-01-25T02:06:20;15.50;;;9.83;;
75450;SDS011;64029;48.244;9.188;2023-01-25T02:08:52;16.13;;;9.10;;
75450;SDS011;64029;48.244;9.188;2023-01-25T02:11:20;12.20;;;8.30;;
75450;SDS011;64029;48.244;9.188;2023-01-25T02:13:48;15.50;;;9.33;;
75450;SDS011;64029;48.244;9.188;2023-01-25T02:16:18;15.13;;;9.23;;
75450;SDS011;64029;48.244;9.188;2023-01-25T02:18:49;14.00;;;8.80;;
75450;SDS011;64029;48.244;9.188;2023-01-25T02:21:17;16.20;;;10.10;;
75450;SDS011;64029;48.244;9.188;2023-01-25T02:23:46;14.50;;;9.50;;
75450;SDS011;64029;48.244;9.188;2023-01-25T02:26:19;17.47;;;9.60;;
75450;SDS011;64029;48.244;9.188;2023-01-25T02:28:49;15.57;;;8.90;;
75450;SDS011;64029;48.244;9.188;2023-01-25T02:31:20;17.23;;;10.00;;
75450;SDS011;64029;48.244;9.188;2023-01-25T02:33:47;14.70;;;8.53;;
75450;SDS011;64029;48.244;9.188;2023-01-25T02:36:15;14.37;;;9.00;;
75450;SDS011;64029;48.244;9.188;2023-01-25T02:38:47;16.33;;;10.23;;
75450;SDS011;64029;48.244;9.188;2023-01-25T02:41:20;13.63;;;9.13;;
75450;SDS011;64029;48.244;9.188;2023-01-25T02:43:50;18.00;;;10.60;;
75450;SDS011;64029;48.244;9.188;2023-01-25T02:46:20;15.90;;;9.80;;
75450;SDS011;64029;48.244;9.188;2023-01-25T02:48:50;17.47;;;9.20;;
75450;SDS011;64029;48.244;9.188;2023-01-25T02:51:18;17.00;;;9.53;;
75450;SDS011;64029;48.244;9.188;2023-01-25T02:53:45;17.50;;;10.70;;
75450;SDS011;64029;48.244;9.188;2023-01-25T02:56:12;19.30;;;10.70;;
75450;SDS011;64029;48.244;9.188;2023-01-25T02:58:40;17.20;;;10.20;;
75450;SDS011;64029;48.244;9.188;2023-01-25T03:01:07;15.30;;;9.10;;
75450;SDS011;64029;48.244;9.188;2023-01-25T03:03:34;16.83;;;9.70;;
75450;SDS011;64029;48.244;9.188;2023-01-25T03:06:01;14.07;;;9.07;;
75450;SDS011;64029;48.244;9.188;2023-01-25T03:08:28;15.30;;;9.13;;
75450;SDS011;64029;48.244;9.188;2023-01-25T03:10:55;18.83;;;10.50;;
75450;SDS011;64029;48.244;9.188;2023-01-25T03:13:23;17.03;;;10.00;;
75450;SDS011;64029;48.244;9.188;2023-01-25T03:15:51;19.87;;;11.07;;
75450;SDS011;64029;48.244;9.188;2023-01-25T03:18:23;15.63;;;8.97;;
75450;SDS011;64029;48.244;9.188;2023-01-25T03:20:50;18.47;;;10.30;;
75450;SDS011;64029;48.244;9.188;2023-01-25T03:23:17;20.10;;;10.57;;
75450;SDS011;64029;48.244;9.188;2023-01-25T03:25:44;19.73;;;11.37;;
75450;SDS011;64029;48.244;9.188;2023-01-25T03:28:11;19.27;;;11.23;;
75450;SDS011;64029;48.244;9.188;2023-01-25T03:30:38;18.40;;;10.63;;
75450;SDS011;64029;48.244;9.188;2023-01-25T03:33:06;16.97;;;10.10;;
75450;SDS011;64029;48.244;9.188;2023-01-25T03:35:33;17.00;;;10.40;;
75450;SDS011;64029;48.244;9.188;2023-01-25T03:38:00;17.77;;;10.93;;
75450;SDS011;64029;48.244;9.188;2023-01-25T03:40:26;15.50;;;9.67;;
75450;SDS011;64029;48.244;9.188;2023-01-25T03:42:53;16.50;;;9.80;;
75450;SDS011;64029;48.244;9.188;2023-01-25T03:45:20;19.13;;;10.20;;
75450;SDS011;64029;48.244;9.188;2023-01-25T03:47:47;16.23;;;9.20;;
75450;SDS011;64029;48.244;9.188;2023-01-25T03:50:15;14.07;;;9.57;;
75450;SDS011;64029;48.244;9.188;2023-01-25T03:52:42;16.60;;;10.20;;
75450;SDS011;64029;48.244;9.188;2023-01-25T03:55:12;16.87;;;10.00;;
75450;SDS011;64029;48.244;9.188;2023-01-25T03:57:39;14.00;;;9.60;;
75450;SDS011;64029;48.244;9.188;2023-01-25T04:00:06;21.70;;;11.33;;
75450;SDS011;64029;48.244;9.188;2023-01-25T04:02:36;22.77;;;10.67;;
75450;SDS011;64029;48.244;9.188;2023-01-25T04:05:03;18.10;;;10.23;;
75450;SDS011;64029;48.244;9.188;2023-01-25T04:07:32;13.80;;;8.73;;
75450;SDS011;64029;48.244;9.188;2023-01-25T04:09:59;18.40;;;10.23;;
75450;SDS011;64029;48.244;9.188;2023-01-25T04:12:26;20.47;;;10.77;;
75450;SDS011;64029;48.244;9.188;2023-01-25T04:14:53;19.53;;;10.83;;
75450;SDS011;64029;48.244;9.188;2023-01-25T04:17:20;17.00;;;11.37;;
75450;SDS011;64029;48.244;9.188;2023-01-25T04:19:46;25.13;;;10.97;;
75450;SDS011;64029;48.244;9.188;2023-01-25T04:22:14;16.13;;;9.23;;
75450;SDS011;64029;48.244;9.188;2023-01-25T04:24:42;17.30;;;9.20;;
75450;SDS011;64029;48.244;9.188;2023-01-25T04:27:09;14.13;;;8.40;;
75450;SDS011;64029;48.244;9.188;2023-01-25T04:29:36;16.63;;;9.53;;
75450;SDS011;64029;48.244;9.188;2023-01-25T04:32:03;18.13;;;10.73;;
75450;SDS011;64029;48.244;9.188;2023-01-25T04:34:30;18.27;;;9.83;;
75450;SDS011;64029;48.244;9.188;2023-01-25T04:36:57;17.03;;;10.27;;
75450;SDS011;64029;48.244;9.188;2023-01-25T04:39:24;20.23;;;11.00;;
75450;SDS011;64029;48.244;9.188;2023-01-25T04:41:52;17.87;;;9.97;;
75450;SDS011;64029;48.244;9.188;2023-01-25T04:44:19;14.77;;;9.27;;
75450;SDS011;64029;48.244;9.188;2023-01-25T04:46:46;17.07;;;10.03;;
75450;SDS011;64029;48.244;9.188;2023-01-25T04:49:13;18.30;;;10.87;;
75450;SDS011;64029;48.244;9.188;2023-01-25T04:51:40;15.43;;;9.23;;
75450;SDS011;64029;48.244;9.188;2023-01-25T04:54:07;19.43;;;10.93;;
75450;SDS011;64029;48.244;9.188;2023-01-25T04:56:34;19.30;;;9.87;;
75450;SDS011;64029;48.244;9.188;2023-01-25T04:59:02;13.90;;;8.80;;
75450;SDS011;64029;48.244;9.188;2023-01-25T05:01:29;15.60;;;9.63;;
75450;SDS011;64029;48.244;9.188;2023-01-25T05:03:57;15.30;;;9.73;;
75450;SDS011;64029;48.244;9.188;2023-01-25T05:06:24;16.10;;;9.70;;
75450;SDS011;64029;48.244;9.188;2023-01-25T05:08:51;15.63;;;9.17;;
75450;SDS011;64029;48.244;9.188;2023-01-25T05:11:18;14.30;;;8.00;;
75450;SDS011;64029;48.244;9.188;2023-01-25T05:13:45;14.77;;;9.60;;
75450;SDS011;64029;48.244;9.188;2023-01-25T05:16:13;14.67;;;8.83;;
75450;SDS011;64029;48.244;9.188;2023-01-25T05:18:40;14.60;;;9.57;;
75450;SDS011;64029;48.244;9.188;2023-01-25T05:21:06;13.47;;;8.50;;
75450;SDS011;64029;48.244;9.188;2023-01-25T05:23:54;17.10;;;9.33;;
75450;SDS011;64029;48.244;9.188;2023-01-25T05:26:20;16.57;;;9.20;;
75450;SDS011;64029;48.244;9.188;2023-01-25T05:29:05;15.83;;;8.93;;
75450;SDS011;64029;48.244;9.188;2023-01-25T05:31:33;15.60;;;8.77;;
75450;SDS011;64029;48.244;9.188;2023-01-25T05:34:00;18.83;;;10.10;;
75450;SDS011;64029;48.244;9.188;2023-01-25T05:36:27;16.50;;;9.90;;
75450;SDS011;64029;48.244;9.188;2023-01-25T05:38:54;18.67;;;10.73;;
75450;SDS011;64029;48.244;9.188;2023-01-25T05:41:21;18.57;;;10.97;;
75450;SDS011;64029;48.244;9.188;2023-01-25T05:43:48;17.97;;;10.90;;
75450;SDS011;64029;48.244;9.188;2023-01-25T05:46:14;16.67;;;9.43;;
75450;SDS011;64029;48.244;9.188;2023-01-25T05:48:43;14.33;;;9.37;;
75450;SDS011;64029;48.244;9.188;2023-01-25T05:51:12;18.30;;;9.67;;
75450;SDS011;64029;48.244;9.188;2023-01-25T05:53:39;16.70;;;9.43;;
75450;SDS011;64029;48.244;9.188;2023-01-25T05:56:06;18.00;;;9.83;;
75450;SDS011;64029;48.244;9.188;2023-01-25T05:58:34;12.63;;;7.63;;
75450;SDS011;64029;48.244;9.188;2023-01-25T06:01:02;14.53;;;8.60;;
75450;SDS011;64029;48.244;9.188;2023-01-25T06:03:30;15.93;;;8.27;;
75450;SDS011;64029;48.244;9.188;2023-01-25T06:05:59;15.67;;;8.90;;
75450;SDS011;64029;48.244;9.188;2023-01-25T06:08:27;14.87;;;9.10;;
75450;SDS011;64029;48.244;9.188;2023-01-25T06:10:54;15.20;;;9.17;;
75450;SDS011;64029;48.244;9.188;2023-01-25T06:13:21;15.57;;;9.53;;
75450;SDS011;64029;48.244;9.188;2023-01-25T06:15:51;18.93;;;11.00;;
75450;SDS011;64029;48.244;9.188;2023-01-25T06:18:19;17.50;;;9.70;;
75450;SDS011;64029;48.244;9.188;2023-01-25T06:20:46;17.67;;;9.87;;
75450;SDS011;64029;48.244;9.188;2023-01-25T06:23:14;19.00;;;10.40;;
75450;SDS011;64029;48.244;9.188;2023-01-25T06:25:41;21.03;;;10.40;;
75450;SDS011;64029;48.244;9.188;2023-01-25T06:28:08;17.63;;;10.33;;
75450;SDS011;64029;48.244;9.188;2023-01-25T06:30:35;21.97;;;11.70;;
75450;SDS011;64029;48.244;9.188;2023-01-25T06:33:02;19.87;;;11.10;;
75450;SDS011;64029;48.244;9.188;2023-01-25T06:35:30;24.20;;;11.60;;
75450;SDS011;64029;48.244;9.188;2023-01-25T06:37:57;21.37;;;10.93;;
75450;SDS011;64029;48.244;9.188;2023-01-25T06:40:26;20.23;;;11.20;;
75450;SDS011;64029;48.244;9.188;2023-01-25T06:42:54;18.63;;;11.57;;
75450;SDS011;64029;48.244;9.188;2023-01-25T06:45:21;18.50;;;10.87;;
75450;SDS011;64029;48.244;9.188;2023-01-25T06:47:48;23.10;;;12.00;;
75450;SDS011;64029;48.244;9.188;2023-01-25T06:50:16;24.10;;;11.90;;
75450;SDS011;64029;48.244;9.188;2023-01-25T06:52:49;19.30;;;9.97;;
75450;SDS011;64029;48.244;9.188;2023-01-25T06:55:17;18.03;;;10.23;;
75450;SDS011;64029;48.244;9.188;2023-01-25T06:57:45;21.33;;;10.03;;
75450;SDS011;64029;48.244;9.188;2023-01-25T07:00:13;21.40;;;11.83;;
75450;SDS011;64029;48.244;9.188;2023-01-25T07:02:41;19.30;;;10.40;;
75450;SDS011;64029;48.244;9.188;2023-01-25T07:05:08;16.87;;;10.40;;
75450;SDS011;64029;48.244;9.188;2023-01-25T07:07:35;16.40;;;9.33;;
75450;SDS011;64029;48.244;9.188;2023-01-25T07:10:02;18.37;;;9.80;;
75450;SDS011;64029;48.244;9.188;2023-01-25T07:12:29;21.10;;;11.40;;
75450;SDS011;64029;48.244;9.188;2023-01-25T07:14:58;16.60;;;9.00;;
75450;SDS011;64029;48.244;9.188;2023-01-25T07:17:25;18.67;;;10.40;;
75450;SDS011;64029;48.244;9.188;2023-01-25T07:19:51;23.00;;;11.67;;
75450;SDS011;64029;48.244;9.188;2023-01-25T07:22:18;18.37;;;10.70;;
75450;SDS011;64029;48.244;9.188;2023-01-25T07:24:45;19.57;;;9.70;;
75450;SDS011;64029;48.244;9.188;2023-01-25T07:27:14;18.23;;;10.10;;
75450;SDS011;64029;48.244;9.188;2023-01-25T07:29:41;20.70;;;12.30;;
75450;SDS011;64029;48.244;9.188;2023-01-25T07:32:11;18.40;;;10.57;;
75450;SDS011;64029;48.244;9.188;2023-01-25T07:34:39;19.13;;;11.13;;
75450;SDS011;64029;48.244;9.188;2023-01-25T07:37:05;20.87;;;11.87;;
75450;SDS011;64029;48.244;9.188;2023-01-25T07:39:33;21.77;;;11.60;;
75450;SDS011;64029;48.244;9.188;2023-01-25T07:42:00;20.43;;;11.30;;
75450;SDS011;64029;48.244;9.188;2023-01-25T07:44:27;17.17;;;9.50;;
75450;SDS011;64029;48.244;9.188;2023-01-25T07:46:54;19.07;;;11.13;;
75450;SDS011;64029;48.244;9.188;2023-01-25T07:49:22;19.00;;;10.60;;
75450;SDS011;64029;48.244;9.188;2023-01-25T07:51:49;21.00;;;11.10;;
75450;SDS011;64029;48.244;9.188;2023-01-25T07:54:16;20.57;;;11.30;;
75450;SDS011;64029;48.244;9.188;2023-01-25T07:56:43;44.63;;;27.00;;
75450;SDS011;64029;48.244;9.188;2023-01-25T07:59:09;28.80;;;19.10;;
75450;SDS011;64029;48.244;9.188;2023-01-25T08:01:38;27.33;;;18.00;;
75450;SDS011;64029;48.244;9.188;2023-01-25T08:04:06;20.70;;;12.53;;
75450;SDS011;64029;48.244;9.188;2023-01-25T08:06:36;17.90;;;8.60;;
75450;SDS011;64029;48.244;9.188;2023-01-25T08:09:05;19.30;;;10.80;;
75450;SDS011;64029;48.244;9.188;2023-01-25T08:11:33;16.77;;;8.77;;
75450;SDS011;64029;48.244;9.188;2023-01-25T08:14:00;16.27;;;9.30;;
75450;SDS011;64029;48.244;9.188;2023-01-25T08:16:27;19.73;;;9.20;;
75450;SDS011;64029;48.244;9.188;2023-01-25T08:18:56;19.83;;;10.00;;
75450;SDS011;64029;48.244;9.188;2023-01-25T08:21:25;20.50;;;10.73;;
75450;SDS011;64029;48.244;9.188;2023-01-25T08:23:55;16.60;;;9.10;;
75450;SDS011;64029;48.244;9.188;2023-01-25T08:26:23;17.03;;;9.03;;
75450;SDS011;64029;48.244;9.188;2023-01-25T08:28:50;20.23;;;10.80;;
75450;SDS011;64029;48.244;9.188;2023-01-25T08:31:19;21.63;;;10.80;;
75450;SDS011;64029;48.244;9.188;2023-01-25T08:33:47;17.80;;;8.97;;
75450;SDS011;64029;48.244;9.188;2023-01-25T08:36:14;16.83;;;8.87;;
75450;SDS011;64029;48.244;9.188;2023-01-25T08:38:42;21.17;;;9.13;;
75450;SDS011;64029;48.244;9.188;2023-01-25T08:41:12;22.27;;;9.77;;
75450;SDS011;64029;48.244;9.188;2023-01-25T08:43:40;17.03;;;9.50;;
75450;SDS011;64029;48.244;9.188;2023-01-25T08:46:07;18.30;;;9.00;;
75450;SDS011;64029;48.244;9.188;2023-01-25T08:48:34;14.90;;;9.57;;
75450;SDS011;64029;48.244;9.188;2023-01-25T08:51:02;20.37;;;10.00;;
75450;SDS011;64029;48.244;9.188;2023-01-25T08:53:29;17.20;;;10.20;;
75450;SDS011;64029;48.244;9.188;2023-01-25T08:56:01;17.60;;;9.50;;
75450;SDS011;64029;48.244;9.188;2023-01-25T08:58:30;16.70;;;9.93;;
75450;SDS011;64029;48.244;9.188;2023-01-25T09:01:00;17.20;;;9.00;;
75450;SDS011;64029;48.244;9.188;2023-01-25T09:03:29;19.10;;;9.20;;
75450;SDS011;64029;48.244;9.188;2023-01-25T09:05:56;18.00;;;9.77;;
75450;SDS011;64029;48.244;9.188;2023-01-25T09:08:23;17.90;;;9.27;;
75450;SDS011;64029;48.244;9.188;2023-01-25T09:10:50;16.00;;;8.90;;
75450;SDS011;64029;48.244;9.188;2023-01-25T09:13:17;17.87;;;9.33;;
75450;SDS011;64029;48.244;9.188;2023-01-25T09:15:45;18.37;;;9.53;;
75450;SDS011;64029;48.244;9.188;2023-01-25T09:18:12;16.83;;;8.30;;
75450;SDS011;64029;48.244;9.188;2023-01-25T09:20:39;17.63;;;9.53;;
75450;SDS011;64029;48.244;9.188;2023-01-25T09:23:06;20.00;;;10.47;;
75450;SDS011;64029;48.244;9.188;2023-01-25T09:25:33;17.60;;;9.93;;
75450;SDS011;64029;48.244;9.188;2023-01-25T09:28:00;19.20;;;9.97;;
75450;SDS011;64029;48.244;9.188;2023-01-25T09:30:35;23.57;;;11.83;;
75450;SDS011;64029;48.244;9.188;2023-01-25T09:33:04;21.57;;;10.60;;
75450;SDS011;64029;48.244;9.188;2023-01-25T09:35:31;21.00;;;10.83;;
75450;SDS011;64029;48.244;9.188;2023-01-25T09:37:59;22.57;;;11.43;;
75450;SDS011;64029;48.244;9.188;2023-01-25T09:40:27;18.80;;;9.87;;
75450;SDS011;64029;48.244;9.188;2023-01-25T09:43:02;17.60;;;9.83;;
75450;SDS011;64029;48.244;9.188;2023-01-25T09:45:36;16.60;;;8.40;;
75450;SDS011;64029;48.244;9.188;2023-01-25T09:48:08;27.50;;;11.70;;
75450;SDS011;64029;48.244;9.188;2023-01-25T09:50:40;30.93;;;13.90;;
75450;SDS011;64029;48.244;9.188;2023-01-25T09:53:26;48.17;;;21.10;;
75450;SDS011;64029;48.244;9.188;2023-01-25T09:55:58;58.93;;;30.17;;
75450;SDS011;64029;48.244;9.188;2023-01-25T09:58:30;43.63;;;23.93;;
75450;SDS011;64029;48.244;9.188;2023-01-25T10:03:53;56.83;;;28.30;;
75450;SDS011;64029;48.244;9.188;2023-01-25T10:06:26;52.27;;;26.07;;
75450;SDS011;64029;48.244;9.188;2023-01-25T10:09:02;32.60;;;16.67;;
75450;SDS011;64029;48.244;9.188;2023-01-25T10:11:38;27.90;;;12.87;;
75450;SDS011;64029;48.244;9.188;2023-01-25T10:14:06;16.90;;;9.87;;
75450;SDS011;64029;48.244;9.188;2023-01-25T10:16:42;17.40;;;9.30;;
75450;SDS011;64029;48.244;9.188;2023-01-25T10:19:17;23.57;;;9.60;;
75450;SDS011;64029;48.244;9.188;2023-01-25T10:21:48;19.83;;;10.00;;
75450;SDS011;64029;48.244;9.188;2023-01-25T10:27:32;17.57;;;8.73;;
75450;SDS011;64029;48.244;9.188;2023-01-25T10:30:12;15.53;;;9.73;;
75450;SDS011;64029;48.244;9.188;2023-01-25T10:32:50;17.83;;;9.03;;
75450;SDS011;64029;48.244;9.188;2023-01-25T10:35:22;16.77;;;8.97;;
75450;SDS011;64029;48.244;9.188;2023-01-25T10:37:52;13.77;;;7.30;;
75450;SDS011;64029;48.244;9.188;2023-01-25T10:40:20;17.53;;;9.43;;
75450;SDS011;64029;48.244;9.188;2023-01-25T10:42:50;18.30;;;9.37;;
75450;SDS011;64029;48.244;9.188;2023-01-25T10:45:20;13.67;;;9.30;;
75450;SDS011;64029;48.244;9.188;2023-01-25T10:47:47;14.80;;;7.97;;
75450;SDS011;64029;48.244;9.188;2023-01-25T10:58:47;14.43;;;8.67;;
75450;SDS011;64029;48.244;9.188;2023-01-25T11:01:29;15.13;;;8.30;;
75450;SDS011;64029;48.244;9.188;2023-01-25T11:03:57;14.63;;;8.40;;
75450;SDS011;64029;48.244;9.188;2023-01-25T11:06:31;16.30;;;8.57;;
75450;SDS011;64029;48.244;9.188;2023-01-25T11:08:59;16.27;;;8.07;;
75450;SDS011;64029;48.244;9.188;2023-01-25T11:11:30;13.53;;;6.67;;
75450;SDS011;64029;48.244;9.188;2023-01-25T11:14:00;18.03;;;7.50;;
75450;SDS011;64029;48.244;9.188;2023-01-25T11:16:29;16.93;;;8.43;;
75450;SDS011;64029;48.244;9.188;2023-01-25T11:18:58;15.00;;;7.73;;
75450;SDS011;64029;48.244;9.188;2023-01-25T11:21:28;14.60;;;7.40;;
75450;SDS011;64029;48.244;9.188;2023-01-25T11:24:01;14.97;;;8.17;;
75450;SDS011;64029;48.244;9.188;2023-01-25T11:26:40;15.30;;;7.97;;
75450;SDS011;64029;48.244;9.188;2023-01-25T11:29:11;16.33;;;7.90;;
75450;SDS011;64029;48.244;9.188;2023-01-25T11:31:41;16.13;;;8.90;;
75450;SDS011;64029;48.244;9.188;2023-01-25T11:34:11;16.43;;;8.90;;
75450;SDS011;64029;48.244;9.188;2023-01-25T11:36:43;13.20;;;7.60;;
75450;SDS011;64029;48.244;9.188;2023-01-25T11:39:19;18.20;;;8.83;;
75450;SDS011;64029;48.244;9.188;2023-01-25T11:41:58;11.67;;;8.17;;
75450;SDS011;64029;48.244;9.188;2023-01-25T11:47:29;14.87;;;7.97;;
75450;SDS011;64029;48.244;9.188;2023-01-25T11:50:10;13.27;;;7.10;;
75450;SDS011;64029;48.244;9.188;2023-01-25T11:52:46;14.00;;;8.23;;
75450;SDS011;64029;48.244;9.188;2023-01-25T11:55:25;13.70;;;7.27;;
75450;SDS011;64029;48.244;9.188;2023-01-25T11:58:10;14.93;;;8.03;;
75450;SDS011;64029;48.244;9.188;2023-01-25T12:00:56;12.70;;;6.93;;
75450;SDS011;64029;48.244;9.188;2023-01-25T12:03:38;14.47;;;6.90;;
75450;SDS011;64029;48.244;9.188;2023-01-25T12:06:25;13.40;;;7.80;;
75450;SDS011;64029;48.244;9.188;2023-01-25T12:09:04;16.37;;;7.67;;
75450;SDS011;64029;48.244;9.188;2023-01-25T12:11:51;16.47;;;8.00;;
75450;SDS011;64029;48.244;9.188;2023-01-25T12:14:28;11.90;;;6.77;;
75450;SDS011;64029;48.244;9.188;2023-01-25T12:17:14;14.63;;;7.90;;
75450;SDS011;64029;48.244;9.188;2023-01-25T12:19:58;15.07;;;8.13;;
75450;SDS011;64029;48.244;9.188;2023-01-25T12:22:48;15.30;;;7.60;;
75450;SDS011;64029;48.244;9.188;2023-01-25T12:25:31;15.60;;;8.67;;
75450;SDS011;64029;48.244;9.188;2023-01-25T12:28:06;17.90;;;9.37;;
75450;SDS011;64029;48.244;9.188;2023-01-25T12:30:42;17.00;;;9.37;;
75450;SDS011;64029;48.244;9.188;2023-01-25T12:33:15;15.20;;;8.30;;
75450;SDS011;64029;48.244;9.188;2023-01-25T12:35:47;15.80;;;7.53;;
75450;SDS011;64029;48.244;9.188;2023-01-25T12:38:20;16.30;;;9.10;;
75450;SDS011;64029;48.244;9.188;2023-01-25T12:40:53;14.77;;;8.03;;
75450;SDS011;64029;48.244;9.188;2023-01-25T12:43:24;15.37;;;7.77;;
75450;SDS011;64029;48.244;9.188;2023-01-25T12:45:55;14.17;;;8.13;;
75450;SDS011;64029;48.244;9.188;2023-01-25T12:48:25;13.50;;;7.60;;
75450;SDS011;64029;48.244;9.188;2023-01-25T12:50:56;12.90;;;7.50;;
75450;SDS011;64029;48.244;9.188;2023-01-25T12:53:24;13.83;;;8.33;;
75450;SDS011;64029;48.244;9.188;2023-01-25T12:55:55;12.67;;;7.40;;
75450;SDS011;64029;48.244;9.188;2023-01-25T12:58:26;9.33;;;6.70;;
75450;SDS011;64029;48.244;9.188;2023-01-25T13:01:00;14.70;;;8.27;;
75450;SDS011;64029;48.244;9.188;2023-01-25T13:03:34;15.33;;;8.37;;
75450;SDS011;64029;48.244;9.188;2023-01-25T13:06:10;15.50;;;8.80;;
75450;SDS011;64029;48.244;9.188;2023-01-25T13:08:45;13.27;;;7.60;;
75450;SDS011;64029;48.244;9.188;2023-01-25T13:11:23;14.30;;;6.63;;
75450;SDS011;64029;48.244;9.188;2023-01-25T13:13:52;14.10;;;6.60;;
75450;SDS011;64029;48.244;9.188;2023-01-25T13:16:41;11.40;;;6.67;;
75450;SDS011;64029;48.244;9.188;2023-01-25T13:19:17;11.53;;;6.57;;
75450;SDS011;64029;48.244;9.188;2023-01-25T13:21:45;13.43;;;7.23;;
75450;SDS011;64029;48.244;9.188;2023-01-25T13:24:15;11.23;;;7.20;;
75450;SDS011;64029;48.244;9.188;2023-01-25T13:26:58;10.00;;;6.67;;
75450;SDS011;64029;48.244;9.188;2023-01-25T13:32:51;12.30;;;7.10;;
75450;SDS011;64029;48.244;9.188;2023-01-25T13:35:24;12.87;;;6.20;;
75450;SDS011;64029;48.244;9.188;2023-01-25T13:38:02;13.70;;;7.10;;
75450;SDS011;64029;48.244;9.188;2023-01-25T13:41:00;11.63;;;6.80;;
75450;SDS011;64029;48.244;9.188;2023-01-25T13:43:41;10.20;;;6.70;;
75450;SDS011;64029;48.244;9.188;2023-01-25T13:46:11;10.60;;;6.87;;
75450;SDS011;64029;48.244;9.188;2023-01-25T13:48:45;15.50;;;7.53;;
75450;SDS011;64029;48.244;9.188;2023-01-25T13:51:35;13.40;;;6.73;;
75450;SDS011;64029;48.244;9.188;2023-01-25T13:54:12;14.60;;;7.50;;
75450;SDS011;64029;48.244;9.188;2023-01-25T13:56:40;10.37;;;7.20;;
75450;SDS011;64029;48.244;9.188;2023-01-25T13:59:22;14.17;;;7.60;;
75450;SDS011;64029;48.244;9.188;2023-01-25T14:01:49;12.87;;;7.50;;
75450;SDS011;64029;48.244;9.188;2023-01-25T14:04:16;13.63;;;7.93;;
75450;SDS011;64029;48.244;9.188;2023-01-25T14:06:43;13.40;;;7.23;;
75450;SDS011;64029;48.244;9.188;2023-01-25T14:09:11;12.40;;;6.93;;
75450;SDS011;64029;48.244;9.188;2023-01-25T14:11:42;16.40;;;7.60;;
75450;SDS011;64029;48.244;9.188;2023-01-25T14:14:17;12.17;;;7.20;;
75450;SDS011;64029;48.244;9.188;2023-01-25T14:19:45;16.53;;;9.47;;
75450;SDS011;64029;48.244;9.188;2023-01-25T14:22:21;28.80;;;13.27;;
75450;SDS011;64029;48.244;9.188;2023-01-25T14:25:03;36.57;;;16.40;;
75450;SDS011;64029;48.244;9.188;2023-01-25T14:27:33;21.40;;;11.50;;
75450;SDS011;64029;48.244;9.188;2023-01-25T14:30:03;14.50;;;8.77;;
75450;SDS011;64029;48.244;9.188;2023-01-25T14:32:30;24.30;;;14.17;;
75450;SDS011;64029;48.244;9.188;2023-01-25T14:35:01;74.83;;;38.80;;
75450;SDS011;64029;48.244;9.188;2023-01-25T14:38:15;44.17;;;23.10;;
75450;SDS011;64029;48.244;9.188;2023-01-25T14:40:52;21.23;;;12.93;;
75450;SDS011;64029;48.244;9.188;2023-01-25T14:43:21;17.27;;;9.00;;
75450;SDS011;64029;48.244;9.188;2023-01-25T14:45:50;13.80;;;7.90;;
75450;SDS011;64029;48.244;9.188;2023-01-25T14:48:36;17.27;;;9.03;;
75450;SDS011;64029;48.244;9.188;2023-01-25T14:51:16;14.13;;;8.70;;
75450;SDS011;64029;48.244;9.188;2023-01-25T14:53:54;18.83;;;8.87;;
75450;SDS011;64029;48.244;9.188;2023-01-25T14:56:28;15.10;;;8.77;;
75450;SDS011;64029;48.244;9.188;2023-01-25T14:58:58;17.30;;;8.43;;
75450;SDS011;64029;48.244;9.188;2023-01-25T15:01:32;17.63;;;9.30;;
75450;SDS011;64029;48.244;9.188;2023-01-25T15:04:07;16.00;;;8.77;;
75450;SDS011;64029;48.244;9.188;2023-01-25T15:06:43;15.73;;;8.20;;
75450;SDS011;64029;48.244;9.188;2023-01-25T15:09:30;15.00;;;8.43;;
75450;SDS011;64029;48.244;9.188;2023-01-25T15:11:59;21.27;;;11.40;;
75450;SDS011;64029;48.244;9.188;2023-01-25T15:14:26;18.90;;;10.23;;